sensor_id;sensor_type;location;lat;lon;timestamp;P1;durP1;ratioP1;P2;durP2;ratioP2
29902;SDS011;30288;50.514;9.678;2023-12-20T00:00:06;7.50;;;4.03;;
29902;SDS011;30288;50.514;9.678;2023-12-20T00:02:13;9.93;;;4.25;;
29902;SDS011;30288;50.514;9.678;2023-12-20T00:04:19;7.60;;;4.07;;
29902;SDS011;30288;50.514;9.678;2023-12-20T00:06:27;7.53;;;3.53;;
29902;SDS011;30288;50.514;9.678;2023-12-20T00:08:32;8.10;;;4.07;;
29902;SDS011;30288;50.514;9.678;2023-12-20T00:10:35;6.45;;;3.10;;
29902;SDS011;30288;50.514;9.678;2023-12-20T00:12:41;6.45;;;3.33;;
29902;SDS011;30288;50.514;9.678;2023-12-20T00:14:47;8.23;;;3.67;;
29902;SDS011;30288;50.514;9.678;2023-12-20T00:16:53;7.53;;;3.45;;
29902;SDS011;30288;50.514;9.678;2023-12-20T00:18:58;6.60;;;3.28;;
29902;SDS011;30288;50.514;9.678;2023-12-20T00:21:04;7.47;;;3.20;;
29902;SDS011;30288;50.514;9.678;2023-12-20T00:23:12;6.07;;;3.08;;
29902;SDS011;30288;50.514;9.678;2023-12-20T00:25:17;7.40;;;3.20;;
29902;SDS011;30288;50.514;9.678;2023-12-20T00:27:23;7.40;;;3.05;;
29902;SDS011;30288;50.514;9.678;2023-12-20T00:29:28;6.30;;;3.10;;
29902;SDS011;30288;50.514;9.678;2023-12-20T00:31:31;6.65;;;3.00;;
29902;SDS011;30288;50.514;9.678;2023-12-20T00:33:36;7.95;;;3.42;;
29902;SDS011;30288;50.514;9.678;2023-12-20T00:35:40;8.40;;;3.47;;
29902;SDS011;30288;50.514;9.678;2023-12-20T00:37:45;6.75;;;3.30;;
29902;SDS011;30288;50.514;9.678;2023-12-20T00:39:53;6.57;;;3.10;;
29902;SDS011;30288;50.514;9.678;2023-12-20T00:41:58;8.68;;;3.53;;
29902;SDS011;30288;50.514;9.678;2023-12-20T00:44:04;6.70;;;3.38;;
29902;SDS011;30288;50.514;9.678;2023-12-20T00:46:09;7.68;;;3.22;;
29902;SDS011;30288;50.514;9.678;2023-12-20T00:48:15;6.57;;;3.25;;
29902;SDS011;30288;50.514;9.678;2023-12-20T00:50:20;7.90;;;3.55;;
29902;SDS011;30288;50.514;9.678;2023-12-20T00:52:30;7.10;;;3.50;;
29902;SDS011;30288;50.514;9.678;2023-12-20T00:54:35;7.07;;;3.00;;
29902;SDS011;30288;50.514;9.678;2023-12-20T00:56:44;5.80;;;3.10;;
29902;SDS011;30288;50.514;9.678;2023-12-20T00:58:49;7.25;;;3.15;;
29902;SDS011;30288;50.514;9.678;2023-12-20T01:00:54;6.65;;;3.33;;
29902;SDS011;30288;50.514;9.678;2023-12-20T01:03:00;7.47;;;3.13;;
29902;SDS011;30288;50.514;9.678;2023-12-20T01:05:06;7.47;;;2.97;;
29902;SDS011;30288;50.514;9.678;2023-12-20T01:07:12;7.43;;;3.30;;
29902;SDS011;30288;50.514;9.678;2023-12-20T01:09:14;6.88;;;3.20;;
29902;SDS011;30288;50.514;9.678;2023-12-20T01:11:20;5.30;;;2.47;;
29902;SDS011;30288;50.514;9.678;2023-12-20T01:13:25;6.68;;;2.63;;
29902;SDS011;30288;50.514;9.678;2023-12-20T01:15:30;5.40;;;2.67;;
29902;SDS011;30288;50.514;9.678;2023-12-20T01:17:36;5.28;;;2.58;;
29902;SDS011;30288;50.514;9.678;2023-12-20T01:19:41;5.95;;;2.78;;
29902;SDS011;30288;50.514;9.678;2023-12-20T01:21:44;6.93;;;3.40;;
29902;SDS011;30288;50.514;9.678;2023-12-20T01:23:49;5.85;;;2.42;;
29902;SDS011;30288;50.514;9.678;2023-12-20T01:25:52;6.05;;;2.97;;
29902;SDS011;30288;50.514;9.678;2023-12-20T01:27:57;6.70;;;3.40;;
29902;SDS011;30288;50.514;9.678;2023-12-20T01:30:03;7.88;;;3.70;;
29902;SDS011;30288;50.514;9.678;2023-12-20T01:32:09;7.72;;;3.78;;
29902;SDS011;30288;50.514;9.678;2023-12-20T01:34:15;9.07;;;3.55;;
29902;SDS011;30288;50.514;9.678;2023-12-20T01:36:20;8.55;;;3.75;;
29902;SDS011;30288;50.514;9.678;2023-12-20T01:38:25;6.95;;;3.72;;
29902;SDS011;30288;50.514;9.678;2023-12-20T01:40:28;6.00;;;2.97;;
29902;SDS011;30288;50.514;9.678;2023-12-20T01:42:34;7.88;;;3.50;;
29902;SDS011;30288;50.514;9.678;2023-12-20T01:44:39;6.95;;;3.60;;
29902;SDS011;30288;50.514;9.678;2023-12-20T01:46:47;6.80;;;3.47;;
29902;SDS011;30288;50.514;9.678;2023-12-20T01:48:52;7.38;;;3.40;;
29902;SDS011;30288;50.514;9.678;2023-12-20T01:50:55;7.90;;;3.92;;
29902;SDS011;30288;50.514;9.678;2023-12-20T01:53:00;8.90;;;3.88;;
29902;SDS011;30288;50.514;9.678;2023-12-20T01:55:08;7.72;;;3.75;;
29902;SDS011;30288;50.514;9.678;2023-12-20T01:57:16;7.47;;;4.25;;
29902;SDS011;30288;50.514;9.678;2023-12-20T01:59:22;7.93;;;3.75;;
29902;SDS011;30288;50.514;9.678;2023-12-20T02:01:28;7.22;;;3.60;;
29902;SDS011;30288;50.514;9.678;2023-12-20T02:03:36;7.00;;;3.35;;
29902;SDS011;30288;50.514;9.678;2023-12-20T02:05:42;6.68;;;3.40;;
29902;SDS011;30288;50.514;9.678;2023-12-20T02:07:49;6.78;;;3.70;;
29902;SDS011;30288;50.514;9.678;2023-12-20T02:09:55;7.45;;;3.25;;
29902;SDS011;30288;50.514;9.678;2023-12-20T02:12:01;7.70;;;3.00;;
29902;SDS011;30288;50.514;9.678;2023-12-20T02:14:04;5.97;;;2.80;;
29902;SDS011;30288;50.514;9.678;2023-12-20T02:16:10;7.47;;;3.38;;
29902;SDS011;30288;50.514;9.678;2023-12-20T02:18:13;7.03;;;2.70;;
29902;SDS011;30288;50.514;9.678;2023-12-20T02:20:21;6.53;;;2.92;;
29902;SDS011;30288;50.514;9.678;2023-12-20T02:22:30;6.25;;;2.78;;
29902;SDS011;30288;50.514;9.678;2023-12-20T02:24:35;5.97;;;2.83;;
29902;SDS011;30288;50.514;9.678;2023-12-20T02:26:40;6.18;;;2.70;;
29902;SDS011;30288;50.514;9.678;2023-12-20T02:28:47;5.53;;;2.47;;
29902;SDS011;30288;50.514;9.678;2023-12-20T02:30:52;5.38;;;2.35;;
29902;SDS011;30288;50.514;9.678;2023-12-20T02:32:59;5.07;;;2.30;;
29902;SDS011;30288;50.514;9.678;2023-12-20T02:35:06;5.57;;;2.45;;
29902;SDS011;30288;50.514;9.678;2023-12-20T02:37:11;5.03;;;2.45;;
29902;SDS011;30288;50.514;9.678;2023-12-20T02:39:16;7.40;;;2.85;;
29902;SDS011;30288;50.514;9.678;2023-12-20T02:41:24;5.95;;;2.50;;
29902;SDS011;30288;50.514;9.678;2023-12-20T02:43:30;5.72;;;2.85;;
29902;SDS011;30288;50.514;9.678;2023-12-20T02:45:35;5.80;;;3.00;;
29902;SDS011;30288;50.514;9.678;2023-12-20T02:47:41;6.80;;;3.42;;
29902;SDS011;30288;50.514;9.678;2023-12-20T02:49:46;5.93;;;3.03;;
29902;SDS011;30288;50.514;9.678;2023-12-20T02:51:52;6.90;;;3.65;;
29902;SDS011;30288;50.514;9.678;2023-12-20T02:53:57;7.45;;;3.63;;
29902;SDS011;30288;50.514;9.678;2023-12-20T02:56:05;7.38;;;3.42;;
29902;SDS011;30288;50.514;9.678;2023-12-20T02:58:11;7.22;;;3.70;;
29902;SDS011;30288;50.514;9.678;2023-12-20T03:00:17;8.50;;;4.30;;
29902;SDS011;30288;50.514;9.678;2023-12-20T03:02:24;7.55;;;4.40;;
29902;SDS011;30288;50.514;9.678;2023-12-20T03:04:29;7.53;;;4.15;;
29902;SDS011;30288;50.514;9.678;2023-12-20T03:06:35;8.48;;;4.57;;
29902;SDS011;30288;50.514;9.678;2023-12-20T03:08:41;9.25;;;4.40;;
29902;SDS011;30288;50.514;9.678;2023-12-20T03:10:43;8.02;;;4.78;;
29902;SDS011;30288;50.514;9.678;2023-12-20T03:12:51;7.57;;;4.30;;
29902;SDS011;30288;50.514;9.678;2023-12-20T03:14:56;7.15;;;4.32;;
29902;SDS011;30288;50.514;9.678;2023-12-20T03:17:02;10.07;;;4.38;;
29902;SDS011;30288;50.514;9.678;2023-12-20T03:19:07;8.50;;;5.05;;
29902;SDS011;30288;50.514;9.678;2023-12-20T03:21:13;9.65;;;5.03;;
29902;SDS011;30288;50.514;9.678;2023-12-20T03:23:19;8.70;;;4.90;;
29902;SDS011;30288;50.514;9.678;2023-12-20T03:25:25;9.13;;;5.13;;
29902;SDS011;30288;50.514;9.678;2023-12-20T03:27:30;10.13;;;5.38;;
29902;SDS011;30288;50.514;9.678;2023-12-20T03:29:38;8.95;;;5.22;;
29902;SDS011;30288;50.514;9.678;2023-12-20T03:31:44;7.53;;;4.22;;
29902;SDS011;30288;50.514;9.678;2023-12-20T03:33:47;9.20;;;5.30;;
29902;SDS011;30288;50.514;9.678;2023-12-20T03:35:54;9.07;;;5.60;;
29902;SDS011;30288;50.514;9.678;2023-12-20T03:38:00;9.23;;;5.13;;
29902;SDS011;30288;50.514;9.678;2023-12-20T03:40:05;9.27;;;5.50;;
29902;SDS011;30288;50.514;9.678;2023-12-20T03:42:12;9.05;;;5.38;;
29902;SDS011;30288;50.514;9.678;2023-12-20T03:44:20;9.35;;;5.68;;
29902;SDS011;30288;50.514;9.678;2023-12-20T03:46:28;11.80;;;6.82;;
29902;SDS011;30288;50.514;9.678;2023-12-20T03:48:31;11.88;;;7.05;;
29902;SDS011;30288;50.514;9.678;2023-12-20T03:50:37;10.75;;;6.28;;
29902;SDS011;30288;50.514;9.678;2023-12-20T03:52:42;11.15;;;6.28;;
29902;SDS011;30288;50.514;9.678;2023-12-20T03:54:45;12.32;;;7.18;;
29902;SDS011;30288;50.514;9.678;2023-12-20T03:56:50;11.77;;;7.35;;
29902;SDS011;30288;50.514;9.678;2023-12-20T03:58:55;11.93;;;7.25;;
29902;SDS011;30288;50.514;9.678;2023-12-20T04:01:00;12.95;;;7.07;;
29902;SDS011;30288;50.514;9.678;2023-12-20T04:03:10;10.90;;;6.53;;
29902;SDS011;30288;50.514;9.678;2023-12-20T04:05:16;10.68;;;6.03;;
29902;SDS011;30288;50.514;9.678;2023-12-20T04:07:22;11.77;;;7.55;;
29902;SDS011;30288;50.514;9.678;2023-12-20T04:09:25;8.90;;;5.28;;
29902;SDS011;30288;50.514;9.678;2023-12-20T04:11:30;6.82;;;3.85;;
29902;SDS011;30288;50.514;9.678;2023-12-20T04:13:35;6.18;;;3.08;;
29902;SDS011;30288;50.514;9.678;2023-12-20T04:15:41;7.63;;;3.67;;
29902;SDS011;30288;50.514;9.678;2023-12-20T04:17:46;6.20;;;3.00;;
29902;SDS011;30288;50.514;9.678;2023-12-20T04:19:54;6.25;;;3.00;;
29902;SDS011;30288;50.514;9.678;2023-12-20T04:21:59;7.40;;;3.13;;
29902;SDS011;30288;50.514;9.678;2023-12-20T04:24:05;5.38;;;2.50;;
29902;SDS011;30288;50.514;9.678;2023-12-20T04:26:12;4.90;;;2.40;;
29902;SDS011;30288;50.514;9.678;2023-12-20T04:28:18;7.63;;;2.60;;
29902;SDS011;30288;50.514;9.678;2023-12-20T04:30:23;7.15;;;3.00;;
29902;SDS011;30288;50.514;9.678;2023-12-20T04:32:25;5.25;;;2.78;;
29902;SDS011;30288;50.514;9.678;2023-12-20T04:34:31;6.30;;;2.97;;
29902;SDS011;30288;50.514;9.678;2023-12-20T04:36:38;5.45;;;2.50;;
29902;SDS011;30288;50.514;9.678;2023-12-20T04:38:44;4.00;;;1.95;;
29902;SDS011;30288;50.514;9.678;2023-12-20T04:40:49;6.15;;;2.30;;
29902;SDS011;30288;50.514;9.678;2023-12-20T04:42:54;5.63;;;2.80;;
29902;SDS011;30288;50.514;9.678;2023-12-20T04:45:00;5.20;;;2.90;;
29902;SDS011;30288;50.514;9.678;2023-12-20T04:47:03;6.22;;;3.22;;
29902;SDS011;30288;50.514;9.678;2023-12-20T04:49:08;7.07;;;3.63;;
29902;SDS011;30288;50.514;9.678;2023-12-20T04:51:14;7.70;;;4.15;;
29902;SDS011;30288;50.514;9.678;2023-12-20T04:53:22;6.53;;;3.55;;
29902;SDS011;30288;50.514;9.678;2023-12-20T04:55:27;7.07;;;3.67;;
29902;SDS011;30288;50.514;9.678;2023-12-20T04:57:33;8.18;;;3.95;;
29902;SDS011;30288;50.514;9.678;2023-12-20T04:59:38;7.63;;;4.07;;
29902;SDS011;30288;50.514;9.678;2023-12-20T05:01:44;9.52;;;3.80;;
29902;SDS011;30288;50.514;9.678;2023-12-20T05:03:49;10.30;;;5.10;;
29902;SDS011;30288;50.514;9.678;2023-12-20T05:05:56;10.80;;;4.57;;
29902;SDS011;30288;50.514;9.678;2023-12-20T05:08:02;10.15;;;4.43;;
29902;SDS011;30288;50.514;9.678;2023-12-20T05:10:11;9.13;;;4.13;;
29902;SDS011;30288;50.514;9.678;2023-12-20T05:12:16;11.32;;;5.40;;
29902;SDS011;30288;50.514;9.678;2023-12-20T05:14:21;12.18;;;6.22;;
29902;SDS011;30288;50.514;9.678;2023-12-20T05:16:28;10.38;;;5.03;;
29902;SDS011;30288;50.514;9.678;2023-12-20T05:18:33;11.07;;;5.50;;
29902;SDS011;30288;50.514;9.678;2023-12-20T05:20:39;14.25;;;6.10;;
29902;SDS011;30288;50.514;9.678;2023-12-20T05:22:45;12.00;;;5.60;;
29902;SDS011;30288;50.514;9.678;2023-12-20T05:24:50;12.27;;;6.10;;
29902;SDS011;30288;50.514;9.678;2023-12-20T05:26:59;11.82;;;5.50;;
29902;SDS011;30288;50.514;9.678;2023-12-20T05:29:04;12.85;;;6.28;;
29902;SDS011;30288;50.514;9.678;2023-12-20T05:31:10;13.18;;;6.05;;
29902;SDS011;30288;50.514;9.678;2023-12-20T05:33:15;13.27;;;6.57;;
29902;SDS011;30288;50.514;9.678;2023-12-20T05:35:21;12.85;;;7.05;;
29902;SDS011;30288;50.514;9.678;2023-12-20T05:37:27;10.25;;;5.63;;
29902;SDS011;30288;50.514;9.678;2023-12-20T05:39:32;12.40;;;5.70;;
29902;SDS011;30288;50.514;9.678;2023-12-20T05:41:38;13.63;;;5.82;;
29902;SDS011;30288;50.514;9.678;2023-12-20T05:43:46;11.40;;;6.90;;
29902;SDS011;30288;50.514;9.678;2023-12-20T05:45:51;13.95;;;7.00;;
29902;SDS011;30288;50.514;9.678;2023-12-20T05:47:56;12.52;;;6.45;;
29902;SDS011;30288;50.514;9.678;2023-12-20T05:50:01;11.48;;;6.40;;
29902;SDS011;30288;50.514;9.678;2023-12-20T05:52:10;13.48;;;7.15;;
29902;SDS011;30288;50.514;9.678;2023-12-20T05:54:16;13.77;;;6.13;;
29902;SDS011;30288;50.514;9.678;2023-12-20T05:56:22;11.18;;;6.32;;
29902;SDS011;30288;50.514;9.678;2023-12-20T06:00:33;11.30;;;5.72;;
29902;SDS011;30288;50.514;9.678;2023-12-20T06:02:39;14.02;;;6.93;;
29902;SDS011;30288;50.514;9.678;2023-12-20T06:04:45;15.32;;;6.75;;
29902;SDS011;30288;50.514;9.678;2023-12-20T06:06:48;13.63;;;6.35;;
29902;SDS011;30288;50.514;9.678;2023-12-20T06:08:53;13.90;;;6.82;;
29902;SDS011;30288;50.514;9.678;2023-12-20T06:10:58;18.13;;;7.10;;
29902;SDS011;30288;50.514;9.678;2023-12-20T06:13:04;14.95;;;6.95;;
29902;SDS011;30288;50.514;9.678;2023-12-20T06:15:10;17.08;;;8.05;;
29902;SDS011;30288;50.514;9.678;2023-12-20T06:17:18;18.00;;;7.40;;
29902;SDS011;30288;50.514;9.678;2023-12-20T06:19:23;16.40;;;7.35;;
29902;SDS011;30288;50.514;9.678;2023-12-20T06:21:28;14.82;;;6.55;;
29902;SDS011;30288;50.514;9.678;2023-12-20T06:23:36;11.50;;;5.78;;
29902;SDS011;30288;50.514;9.678;2023-12-20T06:25:41;14.63;;;6.85;;
29902;SDS011;30288;50.514;9.678;2023-12-20T06:27:46;16.30;;;6.55;;
29902;SDS011;30288;50.514;9.678;2023-12-20T06:29:51;16.80;;;5.88;;
29902;SDS011;30288;50.514;9.678;2023-12-20T06:31:57;15.02;;;6.30;;
29902;SDS011;30288;50.514;9.678;2023-12-20T06:34:05;12.45;;;5.45;;
29902;SDS011;30288;50.514;9.678;2023-12-20T06:36:11;16.73;;;6.43;;
29902;SDS011;30288;50.514;9.678;2023-12-20T06:38:17;13.93;;;6.35;;
29902;SDS011;30288;50.514;9.678;2023-12-20T06:40:23;11.68;;;5.80;;
29902;SDS011;30288;50.514;9.678;2023-12-20T06:42:29;14.25;;;6.47;;
29902;SDS011;30288;50.514;9.678;2023-12-20T06:44:43;13.38;;;6.05;;
29902;SDS011;30288;50.514;9.678;2023-12-20T06:46:49;11.73;;;5.82;;
29902;SDS011;30288;50.514;9.678;2023-12-20T06:48:54;13.82;;;6.05;;
29902;SDS011;30288;50.514;9.678;2023-12-20T06:51:03;16.20;;;5.35;;
29902;SDS011;30288;50.514;9.678;2023-12-20T06:53:08;18.40;;;6.03;;
29902;SDS011;30288;50.514;9.678;2023-12-20T06:55:14;13.75;;;5.75;;
29902;SDS011;30288;50.514;9.678;2023-12-20T06:57:21;22.80;;;6.32;;
29902;SDS011;30288;50.514;9.678;2023-12-20T06:59:27;13.00;;;6.07;;
29902;SDS011;30288;50.514;9.678;2023-12-20T07:01:33;19.98;;;6.18;;
29902;SDS011;30288;50.514;9.678;2023-12-20T07:03:39;15.48;;;6.05;;
29902;SDS011;30288;50.514;9.678;2023-12-20T07:07:50;13.07;;;5.78;;
29902;SDS011;30288;50.514;9.678;2023-12-20T07:09:56;15.90;;;7.25;;
29902;SDS011;30288;50.514;9.678;2023-12-20T07:12:01;21.75;;;6.82;;
29902;SDS011;30288;50.514;9.678;2023-12-20T07:14:07;24.48;;;7.50;;
29902;SDS011;30288;50.514;9.678;2023-12-20T07:16:13;15.13;;;5.95;;
29902;SDS011;30288;50.514;9.678;2023-12-20T07:18:18;15.55;;;6.07;;
29902;SDS011;30288;50.514;9.678;2023-12-20T07:20:24;17.95;;;6.00;;
29902;SDS011;30288;50.514;9.678;2023-12-20T07:22:29;19.42;;;7.68;;
29902;SDS011;30288;50.514;9.678;2023-12-20T07:24:38;16.75;;;6.53;;
29902;SDS011;30288;50.514;9.678;2023-12-20T07:26:43;20.88;;;8.30;;
29902;SDS011;30288;50.514;9.678;2023-12-20T07:28:49;15.73;;;6.95;;
29902;SDS011;30288;50.514;9.678;2023-12-20T07:30:54;16.25;;;6.20;;
29902;SDS011;30288;50.514;9.678;2023-12-20T07:33:00;17.25;;;6.75;;
29902;SDS011;30288;50.514;9.678;2023-12-20T07:35:05;12.45;;;5.70;;
29902;SDS011;30288;50.514;9.678;2023-12-20T07:37:14;13.07;;;6.35;;
29902;SDS011;30288;50.514;9.678;2023-12-20T07:39:20;15.02;;;6.25;;
29902;SDS011;30288;50.514;9.678;2023-12-20T07:41:30;16.70;;;6.25;;
29902;SDS011;30288;50.514;9.678;2023-12-20T07:43:36;15.52;;;6.30;;
29902;SDS011;30288;50.514;9.678;2023-12-20T07:45:41;16.42;;;6.03;;
29902;SDS011;30288;50.514;9.678;2023-12-20T07:47:44;15.88;;;6.22;;
29902;SDS011;30288;50.514;9.678;2023-12-20T07:49:50;13.73;;;6.57;;
29902;SDS011;30288;50.514;9.678;2023-12-20T07:51:55;20.63;;;6.45;;
29902;SDS011;30288;50.514;9.678;2023-12-20T07:54:01;12.82;;;6.53;;
29902;SDS011;30288;50.514;9.678;2023-12-20T07:56:13;14.95;;;6.05;;
29902;SDS011;30288;50.514;9.678;2023-12-20T07:58:22;15.40;;;5.68;;
29902;SDS011;30288;50.514;9.678;2023-12-20T08:00:41;15.77;;;6.10;;
29902;SDS011;30288;50.514;9.678;2023-12-20T08:02:47;18.17;;;7.18;;
29902;SDS011;30288;50.514;9.678;2023-12-20T08:04:54;13.63;;;6.90;;
29902;SDS011;30288;50.514;9.678;2023-12-20T08:06:57;17.52;;;6.80;;
29902;SDS011;30288;50.514;9.678;2023-12-20T08:09:03;11.52;;;6.10;;
29902;SDS011;30288;50.514;9.678;2023-12-20T08:11:08;22.15;;;7.10;;
29902;SDS011;30288;50.514;9.678;2023-12-20T08:13:10;14.60;;;5.82;;
29902;SDS011;30288;50.514;9.678;2023-12-20T08:15:18;17.13;;;7.13;;
29902;SDS011;30288;50.514;9.678;2023-12-20T08:17:24;16.48;;;6.43;;
29902;SDS011;30288;50.514;9.678;2023-12-20T08:19:29;14.32;;;5.38;;
29902;SDS011;30288;50.514;9.678;2023-12-20T08:21:35;18.10;;;7.30;;
29902;SDS011;30288;50.514;9.678;2023-12-20T08:23:39;14.23;;;5.88;;
29902;SDS011;30288;50.514;9.678;2023-12-20T08:25:44;14.68;;;5.65;;
29902;SDS011;30288;50.514;9.678;2023-12-20T08:27:49;17.38;;;6.70;;
29902;SDS011;30288;50.514;9.678;2023-12-20T08:29:55;16.90;;;6.35;;
29902;SDS011;30288;50.514;9.678;2023-12-20T08:32:03;15.95;;;6.47;;
29902;SDS011;30288;50.514;9.678;2023-12-20T08:34:09;18.35;;;6.45;;
29902;SDS011;30288;50.514;9.678;2023-12-20T08:36:14;18.35;;;6.78;;
29902;SDS011;30288;50.514;9.678;2023-12-20T08:38:20;18.13;;;5.78;;
29902;SDS011;30288;50.514;9.678;2023-12-20T08:40:25;13.93;;;6.03;;
29902;SDS011;30288;50.514;9.678;2023-12-20T08:42:30;21.38;;;6.50;;
29902;SDS011;30288;50.514;9.678;2023-12-20T08:44:36;15.77;;;6.43;;
29902;SDS011;30288;50.514;9.678;2023-12-20T08:46:41;18.45;;;6.07;;
29902;SDS011;30288;50.514;9.678;2023-12-20T08:48:50;22.88;;;6.07;;
29902;SDS011;30288;50.514;9.678;2023-12-20T08:50:56;17.77;;;6.00;;
29902;SDS011;30288;50.514;9.678;2023-12-20T08:53:02;20.92;;;6.25;;
29902;SDS011;30288;50.514;9.678;2023-12-20T08:55:08;25.17;;;7.00;;
29902;SDS011;30288;50.514;9.678;2023-12-20T08:57:12;16.27;;;6.35;;
29902;SDS011;30288;50.514;9.678;2023-12-20T08:59:18;14.38;;;5.47;;
29902;SDS011;30288;50.514;9.678;2023-12-20T09:01:23;14.77;;;5.15;;
29902;SDS011;30288;50.514;9.678;2023-12-20T09:03:29;16.25;;;5.55;;
29902;SDS011;30288;50.514;9.678;2023-12-20T09:05:37;21.17;;;5.40;;
29902;SDS011;30288;50.514;9.678;2023-12-20T09:07:42;14.18;;;5.32;;
29902;SDS011;30288;50.514;9.678;2023-12-20T09:09:48;16.25;;;4.90;;
29902;SDS011;30288;50.514;9.678;2023-12-20T09:11:53;10.30;;;4.60;;
29902;SDS011;30288;50.514;9.678;2023-12-20T09:13:58;12.70;;;5.00;;
29902;SDS011;30288;50.514;9.678;2023-12-20T09:16:05;18.42;;;4.95;;
29902;SDS011;30288;50.514;9.678;2023-12-20T09:18:10;13.68;;;4.88;;
29902;SDS011;30288;50.514;9.678;2023-12-20T09:20:16;20.60;;;4.97;;
29902;SDS011;30288;50.514;9.678;2023-12-20T09:22:24;11.98;;;4.40;;
29902;SDS011;30288;50.514;9.678;2023-12-20T09:24:30;12.20;;;4.72;;
29902;SDS011;30288;50.514;9.678;2023-12-20T09:26:35;17.90;;;4.53;;
29902;SDS011;30288;50.514;9.678;2023-12-20T09:28:41;17.88;;;3.88;;
29902;SDS011;30288;50.514;9.678;2023-12-20T09:30:44;10.70;;;4.00;;
29902;SDS011;30288;50.514;9.678;2023-12-20T09:32:49;12.02;;;3.58;;
29902;SDS011;30288;50.514;9.678;2023-12-20T09:34:57;15.98;;;4.88;;
29902;SDS011;30288;50.514;9.678;2023-12-20T09:37:03;12.82;;;3.42;;
29902;SDS011;30288;50.514;9.678;2023-12-20T09:39:12;16.02;;;4.15;;
29902;SDS011;30288;50.514;9.678;2023-12-20T09:41:20;12.35;;;3.47;;
29902;SDS011;30288;50.514;9.678;2023-12-20T09:43:28;11.52;;;4.10;;
29902;SDS011;30288;50.514;9.678;2023-12-20T09:45:34;19.77;;;4.95;;
29902;SDS011;30288;50.514;9.678;2023-12-20T09:47:40;16.42;;;3.95;;
29902;SDS011;30288;50.514;9.678;2023-12-20T09:49:47;15.30;;;4.57;;
29902;SDS011;30288;50.514;9.678;2023-12-20T09:51:53;13.35;;;4.55;;
29902;SDS011;30288;50.514;9.678;2023-12-20T09:53:59;12.98;;;4.25;;
29902;SDS011;30288;50.514;9.678;2023-12-20T09:56:10;9.38;;;4.25;;
29902;SDS011;30288;50.514;9.678;2023-12-20T09:58:16;11.85;;;4.25;;
29902;SDS011;30288;50.514;9.678;2023-12-20T10:00:22;12.88;;;4.38;;
29902;SDS011;30288;50.514;9.678;2023-12-20T10:02:28;9.20;;;4.05;;
29902;SDS011;30288;50.514;9.678;2023-12-20T10:04:36;13.20;;;4.68;;
29902;SDS011;30288;50.514;9.678;2023-12-20T10:06:41;13.45;;;4.28;;
29902;SDS011;30288;50.514;9.678;2023-12-20T10:08:47;14.68;;;3.90;;
29902;SDS011;30288;50.514;9.678;2023-12-20T10:10:53;12.45;;;3.97;;
29902;SDS011;30288;50.514;9.678;2023-12-20T10:13:07;10.10;;;4.00;;
29902;SDS011;30288;50.514;9.678;2023-12-20T10:15:15;14.18;;;4.90;;
29902;SDS011;30288;50.514;9.678;2023-12-20T10:17:21;15.02;;;4.90;;
29902;SDS011;30288;50.514;9.678;2023-12-20T10:19:30;15.35;;;5.03;;
29902;SDS011;30288;50.514;9.678;2023-12-20T10:21:36;15.18;;;4.00;;
29902;SDS011;30288;50.514;9.678;2023-12-20T10:23:41;11.48;;;3.50;;
29902;SDS011;30288;50.514;9.678;2023-12-20T10:25:49;9.90;;;3.30;;
29902;SDS011;30288;50.514;9.678;2023-12-20T10:28:13;12.38;;;3.65;;
29902;SDS011;30288;50.514;9.678;2023-12-20T10:30:23;9.55;;;2.90;;
29902;SDS011;30288;50.514;9.678;2023-12-20T10:32:28;10.50;;;3.45;;
29902;SDS011;30288;50.514;9.678;2023-12-20T10:34:34;13.32;;;3.70;;
29902;SDS011;30288;50.514;9.678;2023-12-20T10:36:40;9.98;;;3.25;;
29902;SDS011;30288;50.514;9.678;2023-12-20T10:38:45;10.30;;;2.88;;
29902;SDS011;30288;50.514;9.678;2023-12-20T10:40:54;10.93;;;3.08;;
29902;SDS011;30288;50.514;9.678;2023-12-20T10:43:02;15.23;;;3.72;;
29902;SDS011;30288;50.514;9.678;2023-12-20T10:45:12;19.17;;;4.32;;
29902;SDS011;30288;50.514;9.678;2023-12-20T10:47:19;9.82;;;3.22;;
29902;SDS011;30288;50.514;9.678;2023-12-20T10:49:28;8.80;;;2.47;;
29902;SDS011;30288;50.514;9.678;2023-12-20T10:51:36;12.45;;;2.85;;
29902;SDS011;30288;50.514;9.678;2023-12-20T10:53:43;7.50;;;2.75;;
29902;SDS011;30288;50.514;9.678;2023-12-20T10:55:52;12.82;;;2.30;;
29902;SDS011;30288;50.514;9.678;2023-12-20T10:58:00;11.50;;;2.63;;
29902;SDS011;30288;50.514;9.678;2023-12-20T11:00:14;11.25;;;2.78;;
29902;SDS011;30288;50.514;9.678;2023-12-20T11:02:22;10.82;;;2.22;;
29902;SDS011;30288;50.514;9.678;2023-12-20T11:04:31;6.35;;;2.00;;
29902;SDS011;30288;50.514;9.678;2023-12-20T11:06:49;10.73;;;2.63;;
29902;SDS011;30288;50.514;9.678;2023-12-20T11:08:58;8.35;;;3.20;;
29902;SDS011;30288;50.514;9.678;2023-12-20T11:11:14;11.13;;;2.55;;
29902;SDS011;30288;50.514;9.678;2023-12-20T11:13:31;8.60;;;2.00;;
29902;SDS011;30288;50.514;9.678;2023-12-20T11:15:44;11.07;;;2.50;;
29902;SDS011;30288;50.514;9.678;2023-12-20T11:17:56;11.18;;;2.33;;
29902;SDS011;30288;50.514;9.678;2023-12-20T11:20:04;14.40;;;2.70;;
29902;SDS011;30288;50.514;9.678;2023-12-20T11:22:15;11.60;;;2.70;;
29902;SDS011;30288;50.514;9.678;2023-12-20T11:24:21;12.05;;;2.50;;
29902;SDS011;30288;50.514;9.678;2023-12-20T11:26:27;14.13;;;3.50;;
29902;SDS011;30288;50.514;9.678;2023-12-20T11:28:31;15.23;;;3.42;;
29902;SDS011;30288;50.514;9.678;2023-12-20T11:30:46;10.27;;;2.80;;
29902;SDS011;30288;50.514;9.678;2023-12-20T11:32:51;11.23;;;2.67;;
29902;SDS011;30288;50.514;9.678;2023-12-20T11:34:59;16.73;;;3.20;;
29902;SDS011;30288;50.514;9.678;2023-12-20T11:37:05;15.70;;;3.35;;
29902;SDS011;30288;50.514;9.678;2023-12-20T11:39:09;13.55;;;4.43;;
29902;SDS011;30288;50.514;9.678;2023-12-20T11:41:15;12.20;;;3.42;;
29902;SDS011;30288;50.514;9.678;2023-12-20T11:43:30;12.13;;;2.90;;
29902;SDS011;30288;50.514;9.678;2023-12-20T11:45:36;15.55;;;2.75;;
29902;SDS011;30288;50.514;9.678;2023-12-20T11:47:56;10.35;;;2.92;;
29902;SDS011;30288;50.514;9.678;2023-12-20T11:50:03;12.73;;;2.97;;
29902;SDS011;30288;50.514;9.678;2023-12-20T11:52:11;9.75;;;2.55;;
29902;SDS011;30288;50.514;9.678;2023-12-20T11:54:17;10.02;;;2.92;;
29902;SDS011;30288;50.514;9.678;2023-12-20T11:56:23;10.07;;;2.67;;
29902;SDS011;30288;50.514;9.678;2023-12-20T11:58:29;11.05;;;2.92;;
29902;SDS011;30288;50.514;9.678;2023-12-20T12:00:34;15.63;;;2.95;;
29902;SDS011;30288;50.514;9.678;2023-12-20T12:02:39;11.75;;;2.50;;
29902;SDS011;30288;50.514;9.678;2023-12-20T12:04:51;10.88;;;2.78;;
29902;SDS011;30288;50.514;9.678;2023-12-20T12:06:58;10.25;;;2.58;;
29902;SDS011;30288;50.514;9.678;2023-12-20T12:09:03;10.77;;;2.67;;
29902;SDS011;30288;50.514;9.678;2023-12-20T12:11:09;11.98;;;2.92;;
29902;SDS011;30288;50.514;9.678;2023-12-20T12:13:15;7.60;;;2.40;;
29902;SDS011;30288;50.514;9.678;2023-12-20T12:15:17;7.78;;;2.33;;
29902;SDS011;30288;50.514;9.678;2023-12-20T12:17:23;13.85;;;2.80;;
29902;SDS011;30288;50.514;9.678;2023-12-20T12:19:29;12.80;;;2.85;;
29902;SDS011;30288;50.514;9.678;2023-12-20T12:21:40;15.73;;;2.88;;
29902;SDS011;30288;50.514;9.678;2023-12-20T12:23:45;8.50;;;2.95;;
29902;SDS011;30288;50.514;9.678;2023-12-20T12:25:51;11.80;;;2.80;;
29902;SDS011;30288;50.514;9.678;2023-12-20T12:27:57;9.18;;;2.30;;
29902;SDS011;30288;50.514;9.678;2023-12-20T12:30:04;15.63;;;2.58;;
29902;SDS011;30288;50.514;9.678;2023-12-20T12:32:11;11.98;;;2.70;;
29902;SDS011;30288;50.514;9.678;2023-12-20T12:34:17;8.80;;;2.22;;
29902;SDS011;30288;50.514;9.678;2023-12-20T12:36:23;6.70;;;2.58;;
29902;SDS011;30288;50.514;9.678;2023-12-20T12:38:31;12.77;;;3.03;;